createdAt,value
2022-11-30T00:01:30.363Z,80.96
2022-11-30T00:03:57.983Z,81.99
2022-11-30T00:06:26.032Z,83.25
2022-11-30T00:08:57.427Z,83.25
2022-11-30T00:11:26.740Z,83.23
2022-11-30T00:13:54.010Z,82.76
2022-11-30T00:16:21.670Z,82.17
2022-11-30T00:18:49.203Z,82.90
2022-11-30T00:21:16.509Z,83.61
2022-11-30T00:23:45.188Z,83.63
2022-11-30T00:26:15.242Z,84.67
2022-11-30T00:28:42.489Z,83.69
2022-11-30T00:31:14.471Z,83.43
2022-11-30T00:33:42.013Z,83.06
2022-11-30T00:36:12.478Z,82.03
2022-11-30T00:38:39.908Z,82.47
2022-11-30T00:41:07.243Z,82.83
2022-11-30T00:43:34.657Z,83.08
2022-11-30T00:46:02.024Z,83.18
2022-11-30T00:48:29.372Z,81.72
2022-11-30T00:50:56.866Z,81.42
2022-11-30T00:53:24.062Z,82.09
2022-11-30T00:55:51.290Z,82.86
2022-11-30T00:58:18.767Z,83.36
2022-11-30T01:00:46.179Z,83.67
2022-11-30T01:03:13.960Z,83.61
2022-11-30T01:05:42.039Z,83.29
2022-11-30T01:08:10.799Z,82.76
2022-11-30T01:10:39.898Z,83.15
2022-11-30T01:13:07.652Z,82.68
2022-11-30T01:15:40.144Z,82.25
2022-11-30T01:18:07.576Z,83.54
2022-11-30T01:20:35.103Z,83.26
2022-11-30T01:23:02.459Z,83.01
2022-11-30T01:25:29.720Z,82.54
2022-11-30T01:27:56.942Z,82.77
2022-11-30T01:30:24.311Z,83.56
2022-11-30T01:32:51.473Z,83.08
2022-11-30T01:35:18.667Z,84.53
2022-11-30T01:37:47.290Z,85.48
2022-11-30T01:40:14.592Z,85.39
2022-11-30T01:42:46.229Z,85.33
2022-11-30T01:45:14.383Z,84.17
2022-11-30T01:47:44.958Z,83.89
2022-11-30T01:50:20.865Z,84.13
2022-11-30T01:52:51.244Z,83.71
2022-11-30T01:55:29.912Z,83.51
2022-11-30T01:58:15.309Z,83.46
2022-11-30T02:00:46.299Z,83.25
2022-11-30T02:03:24.864Z,84.16
2022-11-30T02:05:52.231Z,84.80
2022-11-30T02:08:19.788Z,85.18
2022-11-30T02:10:53.906Z,84.31
2022-11-30T02:13:31.320Z,83.76
2022-11-30T02:15:58.674Z,84.47
2022-11-30T02:18:32.278Z,83.73
2022-11-30T02:21:14.420Z,83.76
2022-11-30T02:23:55.157Z,83.09
2022-11-30T02:26:30.318Z,83.13
2022-11-30T02:29:14.311Z,82.86
2022-11-30T02:31:49.452Z,84.32
2022-11-30T02:34:17.754Z,84.51
2022-11-30T02:36:46.251Z,84.18
2022-11-30T02:39:13.549Z,83.31
2022-11-30T02:41:41.529Z,82.28
2022-11-30T02:44:10.495Z,82.24
2022-11-30T02:47:05.587Z,82.38
2022-11-30T02:49:55.371Z,82.29
2022-11-30T02:52:25.316Z,81.15
2022-11-30T02:54:54.064Z,81.60
2022-11-30T02:57:21.246Z,81.21
2022-11-30T02:59:48.661Z,81.60
2022-11-30T03:02:16.033Z,80.66
2022-11-30T03:04:43.397Z,79.91
2022-11-30T03:07:10.742Z,79.01
2022-11-30T03:09:38.000Z,78.17
2022-11-30T03:12:05.518Z,78.32
2022-11-30T03:14:32.839Z,78.80
2022-11-30T03:17:00.125Z,79.29
2022-11-30T03:19:27.367Z,79.42
2022-11-30T03:21:54.783Z,79.81
2022-11-30T03:24:24.388Z,80.57
2022-11-30T03:26:52.196Z,81.04
2022-11-30T03:29:19.428Z,80.32
2022-11-30T03:31:46.658Z,80.53
2022-11-30T03:34:14.140Z,81.02
2022-11-30T03:36:41.404Z,81.06
2022-11-30T03:39:09.489Z,80.79
2022-11-30T03:41:36.869Z,80.49
2022-11-30T03:44:04.239Z,81.06
2022-11-30T03:46:31.597Z,81.78
2022-11-30T03:48:58.949Z,82.22
2022-11-30T03:51:26.127Z,82.84
2022-11-30T03:53:53.331Z,82.66
2022-11-30T03:56:20.650Z,82.30
2022-11-30T03:58:47.876Z,83.00
2022-11-30T04:01:17.184Z,84.49
2022-11-30T04:03:44.785Z,85.42
2022-11-30T04:06:13.038Z,84.63
2022-11-30T04:08:40.578Z,84.92
2022-11-30T04:11:08.517Z,86.22
2022-11-30T04:13:36.918Z,86.04
2022-11-30T04:16:04.811Z,86.07
2022-11-30T04:18:33.520Z,85.74
2022-11-30T04:21:01.432Z,85.81
2022-11-30T04:23:34.858Z,85.72
2022-11-30T04:26:07.506Z,85.73
2022-11-30T04:28:35.338Z,85.67
2022-11-30T04:31:03.011Z,87.45
2022-11-30T04:33:30.703Z,88.20
2022-11-30T04:36:00.410Z,87.49
2022-11-30T04:38:28.242Z,86.68
2022-11-30T04:40:56.127Z,88.16
2022-11-30T04:43:23.963Z,87.59
2022-11-30T04:45:51.515Z,86.88
2022-11-30T04:48:19.138Z,87.55
2022-11-30T04:50:46.387Z,87.51
2022-11-30T04:53:13.675Z,87.40
2022-11-30T04:55:41.225Z,87.97
2022-11-30T04:58:08.504Z,88.60
2022-11-30T05:00:36.625Z,89.13
2022-11-30T05:03:03.883Z,90.43
2022-11-30T05:05:31.194Z,91.02
2022-11-30T05:07:59.379Z,90.80
2022-11-30T05:10:28.156Z,89.67
2022-11-30T05:12:56.373Z,88.84
2022-11-30T05:15:23.705Z,88.38
2022-11-30T05:17:51.106Z,88.23
2022-11-30T05:20:18.395Z,88.58
2022-11-30T05:22:45.590Z,88.52
2022-11-30T05:25:12.832Z,87.96
2022-11-30T05:27:40.099Z,88.56
2022-11-30T05:30:08.091Z,87.46
2022-11-30T05:32:35.527Z,87.43
2022-11-30T05:35:02.817Z,86.80
2022-11-30T05:37:30.265Z,85.52
2022-11-30T05:39:57.456Z,85.29
2022-11-30T05:42:24.979Z,85.23
2022-11-30T05:44:52.285Z,85.38
2022-11-30T05:47:19.670Z,85.87
2022-11-30T05:49:46.878Z,85.27
2022-11-30T05:52:14.148Z,85.06
2022-11-30T05:54:41.356Z,84.76
2022-11-30T05:57:08.724Z,83.93
2022-11-30T05:59:35.880Z,84.50
2022-11-30T06:02:03.179Z,84.18
2022-11-30T06:04:30.598Z,85.03
2022-11-30T06:06:57.824Z,84.56
2022-11-30T06:09:25.200Z,84.29
2022-11-30T06:11:52.372Z,85.24
2022-11-30T06:14:19.603Z,85.09
2022-11-30T06:16:46.978Z,84.87
2022-11-30T06:19:14.204Z,84.45
2022-11-30T06:21:41.493Z,84.82
2022-11-30T06:24:10.045Z,85.43
2022-11-30T06:26:37.337Z,85.22
2022-11-30T06:29:04.578Z,84.41
2022-11-30T06:31:32.044Z,84.85
2022-11-30T06:33:59.632Z,84.03
2022-11-30T06:36:31.291Z,84.88
2022-11-30T06:39:01.543Z,84.99
2022-11-30T06:41:28.803Z,84.08
2022-11-30T06:43:56.029Z,83.90
2022-11-30T06:46:23.916Z,84.74
2022-11-30T06:48:51.257Z,85.75
2022-11-30T06:51:19.215Z,84.83
2022-11-30T06:53:46.835Z,84.82
2022-11-30T06:56:14.089Z,84.89
2022-11-30T06:58:42.031Z,84.29
2022-11-30T07:01:12.443Z,82.96
2022-11-30T07:03:40.543Z,83.21
2022-11-30T07:06:12.694Z,82.42
2022-11-30T07:08:40.781Z,81.58
2022-11-30T07:11:09.183Z,82.21
2022-11-30T07:13:37.262Z,82.07
2022-11-30T07:16:05.998Z,81.92
2022-11-30T07:18:33.818Z,82.58
2022-11-30T07:21:02.487Z,81.57
2022-11-30T07:23:55.797Z,81.79
2022-11-30T07:26:24.695Z,81.24
2022-11-30T07:28:57.925Z,80.85
2022-11-30T07:31:35.825Z,80.67
2022-11-30T07:34:05.683Z,81.01
2022-11-30T07:36:33.136Z,80.38
2022-11-30T07:39:00.446Z,80.06
2022-11-30T07:41:27.737Z,79.59
2022-11-30T07:43:55.056Z,79.19
2022-11-30T07:46:22.320Z,79.23
2022-11-30T07:48:49.764Z,79.21
2022-11-30T07:51:19.855Z,79.83
2022-11-30T07:53:51.037Z,80.09
2022-11-30T07:56:19.676Z,79.65
2022-11-30T07:58:47.920Z,80.53
2022-11-30T08:01:21.945Z,80.10
2022-11-30T08:03:50.668Z,80.23
2022-11-30T08:06:25.912Z,80.27
2022-11-30T08:08:55.202Z,80.93
2022-11-30T08:11:26.412Z,79.97
2022-11-30T08:13:54.257Z,80.13
2022-11-30T08:16:24.077Z,80.35
2022-11-30T08:18:51.452Z,78.58
2022-11-30T08:21:21.188Z,78.13
2022-11-30T08:23:53.878Z,77.48
2022-11-30T08:26:23.360Z,76.64
2022-11-30T08:28:51.431Z,76.22
2022-11-30T08:31:21.925Z,76.79
2022-11-30T08:33:49.915Z,77.09
2022-11-30T08:36:19.806Z,78.14
2022-11-30T08:38:48.089Z,78.77
2022-11-30T08:41:21.258Z,78.45
2022-11-30T08:43:50.025Z,79.35
2022-11-30T08:46:49.626Z,78.85
2022-11-30T08:49:23.458Z,79.19
2022-11-30T08:52:17.134Z,78.54
2022-11-30T08:57:33.455Z,78.45
2022-11-30T09:00:00.706Z,78.19
2022-11-30T09:02:27.939Z,77.52
2022-11-30T09:04:55.411Z,77.19
2022-11-30T09:07:22.787Z,76.79
2022-11-30T09:09:50.100Z,76.95
2022-11-30T09:12:17.361Z,77.35
2022-11-30T09:14:45.864Z,77.06
2022-11-30T09:17:14.221Z,76.98
2022-11-30T09:19:41.511Z,78.25
2022-11-30T09:22:10.094Z,78.76
2022-11-30T09:24:38.284Z,78.58
2022-11-30T09:27:05.510Z,78.90
2022-11-30T09:29:32.736Z,78.12
2022-11-30T09:32:00.445Z,76.80
2022-11-30T09:34:27.707Z,76.35
2022-11-30T09:36:55.430Z,75.75
2022-11-30T09:39:22.757Z,75.93
2022-11-30T09:42:08.324Z,75.25
2022-11-30T09:44:38.181Z,74.93
2022-11-30T09:47:08.631Z,76.41
2022-11-30T09:49:39.425Z,76.20
2022-11-30T09:52:12.977Z,76.13
2022-11-30T09:54:42.703Z,75.77
2022-11-30T09:57:35.205Z,75.35
2022-11-30T10:00:06.309Z,74.82
2022-11-30T10:02:40.045Z,74.97
2022-11-30T10:05:26.055Z,73.98
2022-11-30T10:08:04.937Z,74.55
2022-11-30T10:10:53.676Z,75.36
2022-11-30T10:14:05.347Z,74.53
2022-11-30T10:16:58.342Z,74.36
2022-11-30T10:19:51.594Z,75.40
2022-11-30T10:23:02.706Z,75.85
2022-11-30T10:25:54.550Z,74.98
2022-11-30T10:28:51.121Z,74.48
2022-11-30T10:31:20.919Z,75.03
2022-11-30T10:33:51.315Z,74.88
2022-11-30T10:36:29.335Z,75.37
2022-11-30T10:39:00.146Z,75.12
2022-11-30T10:41:47.485Z,75.32
2022-11-30T10:44:34.581Z,74.20
2022-11-30T10:47:03.320Z,74.89
2022-11-30T10:49:32.182Z,74.59
2022-11-30T10:52:03.844Z,74.57
2022-11-30T10:54:31.867Z,75.86
2022-11-30T10:57:01.832Z,75.87
2022-11-30T10:59:38.427Z,76.09
2022-11-30T11:02:35.433Z,74.91
2022-11-30T11:05:15.073Z,76.44
2022-11-30T11:07:55.247Z,77.11
2022-11-30T11:10:28.345Z,76.28
2022-11-30T11:12:55.906Z,76.38
2022-11-30T11:15:29.172Z,76.22
2022-11-30T11:18:21.322Z,76.51
2022-11-30T11:20:49.500Z,76.11
2022-11-30T11:23:28.750Z,77.11
2022-11-30T11:25:57.701Z,77.23
2022-11-30T11:28:25.470Z,76.31
2022-11-30T11:30:55.072Z,76.99
2022-11-30T11:33:25.015Z,76.27
2022-11-30T11:36:12.910Z,74.92
2022-11-30T11:38:46.077Z,74.42
2022-11-30T11:41:20.532Z,74.13
2022-11-30T11:44:22.735Z,74.21
2022-11-30T11:47:07.570Z,76.90
2022-11-30T11:49:36.686Z,77.89
2022-11-30T11:52:07.077Z,77.55
2022-11-30T11:54:49.693Z,77.08
2022-11-30T11:57:18.862Z,76.84
2022-11-30T12:00:01.295Z,76.64
2022-11-30T12:03:09.012Z,76.86
2022-11-30T12:05:36.136Z,75.17
2022-11-30T12:08:14.422Z,76.20
2022-11-30T12:10:52.263Z,76.53
2022-11-30T12:13:33.109Z,76.10
2022-11-30T12:16:15.598Z,76.72
2022-11-30T12:18:50.940Z,77.90
2022-11-30T12:21:27.199Z,78.12
2022-11-30T12:24:21.232Z,77.83
2022-11-30T12:27:02.536Z,76.90
2022-11-30T12:29:29.875Z,76.53
2022-11-30T12:32:17.411Z,75.52
2022-11-30T12:35:06.750Z,75.02
2022-11-30T12:37:47.857Z,73.98
2022-11-30T12:40:58.820Z,75.19
2022-11-30T12:43:45.829Z,74.99
2022-11-30T12:46:18.568Z,74.54
2022-11-30T12:48:45.900Z,75.02
2022-11-30T12:51:50.300Z,74.61
2022-11-30T12:54:22.831Z,74.82
2022-11-30T12:57:15.908Z,75.24
2022-11-30T13:00:21.803Z,76.55
2022-11-30T13:02:52.346Z,76.13
2022-11-30T13:05:24.791Z,75.51
2022-11-30T13:07:58.585Z,75.08
2022-11-30T13:10:31.889Z,75.79
2022-11-30T13:13:00.531Z,75.59
2022-11-30T13:15:30.952Z,75.51
2022-11-30T13:17:58.479Z,74.22
2022-11-30T13:20:39.600Z,74.68
2022-11-30T13:23:32.043Z,74.27
2022-11-30T13:26:27.245Z,73.93
2022-11-30T13:29:36.657Z,74.38
2022-11-30T13:32:27.526Z,74.09
2022-11-30T13:35:29.613Z,67.35
2022-11-30T13:41:07.802Z,71.84
2022-11-30T13:43:40.092Z,73.43
2022-11-30T13:46:19.542Z,73.00
2022-11-30T13:48:47.927Z,74.35
2022-11-30T13:51:36.429Z,74.58
2022-11-30T13:54:38.503Z,73.97
2022-11-30T13:57:38.063Z,73.32
2022-11-30T14:00:30.077Z,73.83
2022-11-30T14:03:18.292Z,73.78
2022-11-30T14:05:55.873Z,73.93
2022-11-30T14:08:24.380Z,74.75
2022-11-30T14:10:55.794Z,75.40
2022-11-30T14:13:31.220Z,75.95
2022-11-30T14:16:00.707Z,76.97
2022-11-30T14:18:48.210Z,76.99
2022-11-30T14:21:17.688Z,76.86
2022-11-30T14:24:21.197Z,77.33
2022-11-30T14:26:50.533Z,76.61
2022-11-30T14:29:20.488Z,75.64
2022-11-30T14:31:47.808Z,75.53
2022-11-30T14:34:20.140Z,75.45
2022-11-30T14:36:51.454Z,75.39
2022-11-30T14:39:42.605Z,76.68
2022-11-30T14:42:36.340Z,76.62
2022-11-30T14:45:04.100Z,77.20
2022-11-30T14:47:34.268Z,78.35
2022-11-30T14:50:02.879Z,79.57
2022-11-30T14:52:57.670Z,79.06
2022-11-30T14:55:46.211Z,80.04
2022-11-30T14:58:32.588Z,79.38
2022-11-30T15:00:59.921Z,78.02
2022-11-30T15:03:32.645Z,78.29
2022-11-30T15:06:04.792Z,79.14
2022-11-30T15:08:42.212Z,79.43
2022-11-30T15:11:12.266Z,78.81
2022-11-30T15:13:49.635Z,78.17
2022-11-30T15:16:20.464Z,79.79
2022-11-30T15:18:48.969Z,79.75
2022-11-30T15:21:23.927Z,78.64
2022-11-30T15:23:52.973Z,77.81
2022-11-30T15:26:38.277Z,76.81
2022-11-30T15:29:38.934Z,76.69
2022-11-30T15:32:08.367Z,76.96
2022-11-30T15:34:56.604Z,76.25
2022-11-30T15:37:32.059Z,76.58
2022-11-30T15:40:02.157Z,76.50
2022-11-30T15:42:39.571Z,77.00
2022-11-30T15:45:19.059Z,77.28
2022-11-30T15:47:46.719Z,77.39
2022-11-30T15:50:37.933Z,78.14
2022-11-30T15:53:25.684Z,77.57
2022-11-30T15:55:56.131Z,77.33
2022-11-30T15:58:45.281Z,77.41
2022-11-30T16:01:22.800Z,77.39
2022-11-30T16:03:56.243Z,79.70
2022-11-30T16:06:44.208Z,79.40
2022-11-30T16:09:43.773Z,78.62
2022-11-30T16:12:22.932Z,78.69
2022-11-30T16:14:50.272Z,79.32
2022-11-30T16:17:17.564Z,79.25
2022-11-30T16:19:45.471Z,79.65
2022-11-30T16:22:13.994Z,79.91
2022-11-30T16:24:41.544Z,79.08
2022-11-30T16:27:19.391Z,78.65
2022-11-30T16:29:52.042Z,77.95
2022-11-30T16:32:19.786Z,77.38
2022-11-30T16:34:48.013Z,78.56
2022-11-30T16:37:15.817Z,81.12
2022-11-30T16:39:43.312Z,82.48
2022-11-30T16:42:12.590Z,81.75
2022-11-30T16:44:39.780Z,82.74
2022-11-30T16:47:07.225Z,83.08
2022-11-30T16:49:34.395Z,82.61
2022-11-30T16:52:01.848Z,83.25
2022-11-30T16:54:29.057Z,83.37
2022-11-30T16:56:56.255Z,82.27
2022-11-30T16:59:23.516Z,83.27
2022-11-30T17:01:53.939Z,84.56
2022-11-30T17:04:24.019Z,84.70
2022-11-30T17:06:53.672Z,83.76
2022-11-30T17:09:23.366Z,83.13
2022-11-30T17:11:51.425Z,82.97
2022-11-30T17:14:19.693Z,83.43
2022-11-30T17:16:46.998Z,83.02
2022-11-30T17:19:14.584Z,82.55
2022-11-30T17:21:42.977Z,83.70
2022-11-30T17:24:10.526Z,84.03
2022-11-30T17:26:37.823Z,84.52
2022-11-30T17:29:05.050Z,84.08
2022-11-30T17:31:32.531Z,83.40
2022-11-30T17:34:00.567Z,83.86
2022-11-30T17:36:29.424Z,85.67
2022-11-30T17:38:57.642Z,85.34
2022-11-30T17:41:24.855Z,84.90
2022-11-30T17:43:52.218Z,84.23
2022-11-30T17:46:20.991Z,84.67
2022-11-30T17:48:49.648Z,83.79
2022-11-30T17:51:17.265Z,83.67
2022-11-30T17:53:44.683Z,84.14
2022-11-30T17:56:14.517Z,84.44
2022-11-30T17:58:44.456Z,85.41
2022-11-30T18:01:38.386Z,84.36
2022-11-30T18:04:05.956Z,84.24
2022-11-30T18:06:35.712Z,85.04
2022-11-30T18:09:03.003Z,85.18
2022-11-30T18:11:30.305Z,85.13
2022-11-30T18:14:00.366Z,85.90
2022-11-30T18:16:30.882Z,85.92
2022-11-30T18:18:59.371Z,85.54
2022-11-30T18:21:29.459Z,85.59
2022-11-30T18:23:57.169Z,85.61
2022-11-30T18:26:25.582Z,86.41
2022-11-30T18:28:57.971Z,87.66
2022-11-30T18:31:26.149Z,87.22
2022-11-30T18:34:02.533Z,86.72
2022-11-30T18:36:30.057Z,86.28
2022-11-30T18:38:57.366Z,86.39
2022-11-30T18:41:26.256Z,85.97
2022-11-30T18:43:53.796Z,86.79
2022-11-30T18:46:21.443Z,86.22
2022-11-30T18:48:50.451Z,86.17
2022-11-30T18:51:20.343Z,85.03
2022-11-30T18:53:47.794Z,85.40
2022-11-30T18:56:17.872Z,85.25
2022-11-30T18:58:46.559Z,85.12
2022-11-30T19:01:16.889Z,85.35
2022-11-30T19:03:50.730Z,84.58
2022-11-30T19:06:18.314Z,84.17
2022-11-30T19:08:47.636Z,84.66
2022-11-30T19:11:15.866Z,84.56
2022-11-30T19:13:43.848Z,84.39
2022-11-30T19:16:13.909Z,84.54
2022-11-30T19:18:41.355Z,85.30
2022-11-30T19:21:13.544Z,85.11
2022-11-30T19:23:40.911Z,86.54
2022-11-30T19:26:10.163Z,86.74
2022-11-30T19:28:38.685Z,87.44
2022-11-30T19:31:10.870Z,88.06
2022-11-30T19:33:39.649Z,87.69
2022-11-30T19:36:09.825Z,87.20
2022-11-30T19:38:36.981Z,86.19
2022-11-30T19:41:08.451Z,86.85
2022-11-30T19:43:36.199Z,87.19
2022-11-30T19:46:08.446Z,87.55
2022-11-30T19:48:36.205Z,88.08
2022-11-30T19:51:10.961Z,87.50
2022-11-30T19:53:43.686Z,87.19
2022-11-30T19:56:12.321Z,86.01
2022-11-30T19:58:39.814Z,85.65
2022-11-30T20:01:12.092Z,85.89
2022-11-30T20:03:39.517Z,85.14
2022-11-30T20:06:06.997Z,85.57
2022-11-30T20:08:34.288Z,85.41
2022-11-30T20:11:06.051Z,85.24
2022-11-30T20:13:33.266Z,85.60
2022-11-30T20:16:07.225Z,86.00
2022-11-30T20:18:34.861Z,85.73
2022-11-30T20:21:13.697Z,86.10
2022-11-30T20:23:41.860Z,85.85
2022-11-30T20:26:24.432Z,86.37
2022-11-30T20:28:52.694Z,85.64
2022-11-30T20:31:21.473Z,85.85
2022-11-30T20:33:49.464Z,85.89
2022-11-30T20:36:18.664Z,86.07
2022-11-30T20:38:46.438Z,85.94
2022-11-30T20:41:19.128Z,85.95
2022-11-30T20:43:46.748Z,85.89
2022-11-30T20:46:17.938Z,86.27
2022-11-30T20:48:45.659Z,85.96
2022-11-30T20:51:30.188Z,87.72
2022-11-30T20:54:06.826Z,88.90
2022-11-30T20:56:36.774Z,88.73
2022-11-30T20:59:06.724Z,88.36
2022-11-30T21:01:34.877Z,87.59
2022-11-30T21:04:02.235Z,88.18
2022-11-30T21:06:30.439Z,88.63
2022-11-30T21:08:58.097Z,88.88
2022-11-30T21:11:28.907Z,87.91
2022-11-30T21:13:56.959Z,87.46
2022-11-30T21:16:28.449Z,87.88
2022-11-30T21:19:00.226Z,88.83
2022-11-30T21:21:30.747Z,88.89
2022-11-30T21:24:02.728Z,89.13
2022-11-30T21:26:36.882Z,89.00
2022-11-30T21:29:14.129Z,89.34
2022-11-30T21:31:41.587Z,89.21
2022-11-30T21:34:08.932Z,89.24
2022-11-30T21:36:36.259Z,89.95
2022-11-30T21:39:06.632Z,89.72
2022-11-30T21:41:36.244Z,89.19
2022-11-30T21:44:04.412Z,89.57
2022-11-30T21:46:32.009Z,88.71
2022-11-30T21:48:59.320Z,88.64
2022-11-30T21:51:28.311Z,87.98
2022-11-30T21:53:58.817Z,87.08
2022-11-30T21:56:28.455Z,86.72
2022-11-30T21:58:56.724Z,87.25
2022-11-30T22:01:35.736Z,87.18
2022-11-30T22:04:04.890Z,86.00
2022-11-30T22:06:33.905Z,85.83
2022-11-30T22:09:03.220Z,85.76
2022-11-30T22:11:31.012Z,85.89
2022-11-30T22:13:58.460Z,85.97
2022-11-30T22:16:32.497Z,85.96
2022-11-30T22:19:03.176Z,86.40
2022-11-30T22:21:31.068Z,86.12
2022-11-30T22:24:06.747Z,85.49
2022-11-30T22:26:36.428Z,85.66
2022-11-30T22:29:05.659Z,84.74
2022-11-30T22:31:35.404Z,84.62
2022-11-30T22:34:03.062Z,84.32
2022-11-30T22:36:31.708Z,84.31
2022-11-30T22:39:00.926Z,83.76
2022-11-30T22:41:28.851Z,83.32
2022-11-30T22:43:57.019Z,84.19
2022-11-30T22:46:26.619Z,84.89
2022-11-30T22:48:54.474Z,85.05
2022-11-30T22:51:23.633Z,84.70
2022-11-30T22:53:52.073Z,84.25
2022-11-30T22:56:22.036Z,83.83
2022-11-30T22:58:51.039Z,83.28
2022-11-30T23:01:20.797Z,84.00
2022-11-30T23:03:49.196Z,84.39
2022-11-30T23:06:17.850Z,85.20
2022-11-30T23:08:46.151Z,85.47
2022-11-30T23:11:16.014Z,85.51
2022-11-30T23:13:43.746Z,85.56
2022-11-30T23:16:13.052Z,85.46
2022-11-30T23:18:45.821Z,86.13
2022-11-30T23:21:15.167Z,85.68
2022-11-30T23:23:43.751Z,86.35
2022-11-30T23:26:16.262Z,85.59
2022-11-30T23:28:44.957Z,85.57
2022-11-30T23:31:34.652Z,86.74
2022-11-30T23:34:12.404Z,86.75
2022-11-30T23:36:39.674Z,86.69
2022-11-30T23:39:11.555Z,86.87
2022-11-30T23:41:39.182Z,86.53
2022-11-30T23:44:07.335Z,86.23
2022-11-30T23:46:34.827Z,86.35
2022-11-30T23:49:02.588Z,87.27
2022-11-30T23:51:29.958Z,87.31
2022-11-30T23:53:57.124Z,87.48
2022-11-30T23:56:24.583Z,87.40
2022-11-30T23:58:52.333Z,87.57
